createdAt,value
2023-02-11T00:02:08.419Z,1.22
2023-02-11T00:04:38.659Z,1.25
2023-02-11T00:07:08.755Z,1.26
2023-02-11T00:09:38.903Z,1.28
2023-02-11T00:12:09.016Z,1.21
2023-02-11T00:14:39.416Z,1.22
2023-02-11T00:17:09.618Z,1.20
2023-02-11T00:19:40.241Z,1.22
2023-02-11T00:22:11.829Z,1.26
2023-02-11T00:24:45.142Z,1.26
2023-02-11T00:27:15.457Z,1.26
2023-02-11T00:29:46.395Z,1.20
2023-02-11T00:32:16.846Z,1.32
2023-02-11T00:34:47.137Z,1.31
2023-02-11T00:37:17.371Z,1.28
2023-02-11T00:39:47.559Z,1.27
2023-02-11T00:42:17.727Z,1.26
2023-02-11T00:44:47.907Z,1.27
2023-02-11T00:47:18.066Z,1.28
2023-02-11T00:49:48.208Z,1.32
2023-02-11T00:52:18.392Z,1.24
2023-02-11T00:54:48.503Z,1.26
2023-02-11T00:57:18.725Z,1.29
2023-02-11T00:59:49.071Z,1.23
2023-02-11T01:02:19.251Z,1.21
2023-02-11T01:04:49.445Z,1.28
2023-02-11T01:07:19.593Z,1.30
2023-02-11T01:09:49.764Z,1.28
2023-02-11T01:12:20.280Z,1.25
2023-02-11T01:14:50.631Z,1.20
2023-02-11T01:17:20.767Z,1.21
2023-02-11T01:19:50.858Z,1.21
2023-02-11T01:22:20.977Z,1.21
2023-02-11T01:24:51.172Z,1.26
2023-02-11T01:27:21.322Z,1.27
2023-02-11T01:29:51.518Z,1.26
2023-02-11T01:32:21.658Z,1.28
2023-02-11T01:34:51.818Z,1.34
2023-02-11T01:37:21.909Z,1.31
2023-02-11T01:39:52.461Z,1.31
2023-02-11T01:42:23.847Z,1.31
2023-02-11T01:44:54.773Z,1.34
2023-02-11T01:47:24.933Z,1.32
2023-02-11T01:50:02.049Z,1.29
2023-02-11T01:52:35.098Z,1.35
2023-02-11T01:55:29.823Z,1.33
2023-02-11T01:58:03.165Z,1.29
2023-02-11T02:00:39.227Z,1.30
2023-02-11T02:03:22.825Z,1.29
2023-02-11T02:06:03.919Z,1.32
2023-02-11T02:08:58.270Z,1.30
2023-02-11T02:11:28.541Z,1.27
2023-02-11T02:13:58.805Z,1.26
2023-02-11T02:16:37.908Z,1.22
2023-02-11T02:19:56.173Z,1.25
2023-02-11T02:22:57.772Z,1.25
2023-02-11T02:26:06.161Z,1.27
2023-02-11T02:28:54.482Z,1.26
2023-02-11T02:31:54.893Z,1.22
2023-02-11T02:34:44.863Z,1.21
2023-02-11T02:37:42.513Z,1.25
2023-02-11T02:40:19.219Z,1.19
2023-02-11T02:42:50.830Z,1.25
2023-02-11T02:45:21.444Z,1.25
2023-02-11T02:47:51.665Z,1.18
2023-02-11T02:50:30.421Z,1.26
2023-02-11T02:53:25.621Z,1.28
2023-02-11T02:56:07.826Z,1.31
2023-02-11T02:58:37.874Z,1.30
2023-02-11T03:01:40.402Z,1.30
2023-02-11T03:04:16.978Z,1.26
2023-02-11T03:06:55.410Z,1.22
2023-02-11T03:09:35.277Z,1.31
2023-02-11T03:12:07.598Z,1.29
2023-02-11T03:14:38.968Z,1.30
2023-02-11T03:17:10.654Z,1.28
2023-02-11T03:19:45.509Z,1.33
2023-02-11T03:22:29.404Z,1.34
2023-02-11T03:25:02.236Z,1.37
2023-02-11T03:27:43.885Z,1.38
2023-02-11T03:30:21.067Z,1.43
2023-02-11T03:33:01.261Z,1.44
2023-02-11T03:36:02.866Z,1.46
2023-02-11T03:38:38.169Z,1.44
2023-02-11T03:41:10.178Z,1.43
2023-02-11T03:43:50.494Z,1.45
2023-02-11T03:46:28.231Z,1.43
2023-02-11T03:49:04.737Z,1.44
2023-02-11T03:51:36.047Z,1.43
2023-02-11T03:54:15.060Z,1.43
2023-02-11T03:56:54.197Z,1.38
2023-02-11T03:59:24.600Z,1.39
2023-02-11T04:01:55.266Z,1.40
2023-02-11T04:04:30.038Z,1.38
2023-02-11T04:07:02.955Z,1.37
2023-02-11T04:09:38.236Z,1.36
2023-02-11T04:12:12.093Z,1.34
2023-02-11T04:14:42.273Z,1.34
2023-02-11T04:17:13.665Z,1.39
2023-02-11T04:19:43.918Z,1.35
2023-02-11T04:22:14.376Z,1.28
2023-02-11T04:24:44.460Z,1.27
2023-02-11T04:27:14.754Z,1.25
2023-02-11T04:29:44.918Z,1.25
2023-02-11T04:32:15.809Z,1.25
2023-02-11T04:34:45.946Z,1.23
2023-02-11T04:37:16.193Z,1.21
2023-02-11T04:39:46.360Z,1.21
2023-02-11T04:42:16.485Z,1.18
2023-02-11T04:44:46.689Z,1.16
2023-02-11T04:47:16.984Z,1.20
2023-02-11T04:49:47.170Z,1.18
2023-02-11T04:52:17.383Z,1.16
2023-02-11T04:54:47.462Z,1.15
2023-02-11T04:57:17.671Z,1.16
2023-02-11T04:59:48.268Z,1.12
2023-02-11T05:02:18.436Z,1.06
2023-02-11T05:04:48.600Z,1.05
2023-02-11T05:07:18.753Z,1.01
2023-02-11T05:09:48.974Z,1.01
2023-02-11T05:12:19.148Z,0.98
2023-02-11T05:14:49.263Z,0.99
2023-02-11T05:17:19.515Z,1.01
2023-02-11T05:19:49.700Z,0.96
2023-02-11T05:22:20.218Z,0.98
2023-02-11T05:24:50.523Z,0.99
2023-02-11T05:27:20.742Z,1.00
2023-02-11T05:29:50.894Z,0.96
2023-02-11T05:32:21.190Z,1.02
2023-02-11T05:34:51.377Z,0.98
2023-02-11T05:37:21.495Z,1.08
2023-02-11T05:39:51.713Z,1.05
2023-02-11T05:42:21.798Z,1.04
2023-02-11T05:44:51.943Z,1.04
2023-02-11T05:47:22.029Z,1.12
2023-02-11T05:49:53.859Z,1.18
2023-02-11T05:52:24.765Z,1.12
2023-02-11T05:54:54.948Z,1.14
2023-02-11T05:57:25.380Z,1.18
2023-02-11T05:59:55.640Z,1.16
2023-02-11T06:02:25.928Z,1.20
2023-02-11T06:04:56.096Z,1.17
2023-02-11T06:07:26.355Z,1.19
2023-02-11T06:09:56.572Z,1.20
2023-02-11T06:12:27.307Z,1.21
2023-02-11T06:14:57.556Z,1.18
2023-02-11T06:17:29.214Z,1.21
2023-02-11T06:20:01.168Z,1.23
2023-02-11T06:22:31.304Z,1.21
2023-02-11T06:25:02.396Z,1.20
2023-02-11T06:27:32.762Z,1.17
2023-02-11T06:30:04.484Z,1.23
2023-02-11T06:32:50.064Z,1.24
2023-02-11T06:35:20.199Z,1.22
2023-02-11T06:37:50.408Z,1.21
2023-02-11T06:40:20.971Z,1.18
2023-02-11T06:42:51.165Z,1.19
2023-02-11T06:45:21.408Z,1.07
2023-02-11T06:47:53.160Z,1.12
2023-02-11T06:50:23.436Z,1.14
2023-02-11T06:52:53.608Z,1.19
2023-02-11T06:55:23.795Z,1.17
2023-02-11T06:57:53.917Z,1.19
2023-02-11T07:00:24.022Z,1.17
2023-02-11T07:02:54.160Z,1.17
2023-02-11T07:05:24.574Z,1.24
2023-02-11T07:07:54.721Z,1.22
2023-02-11T07:10:24.921Z,1.25
2023-02-11T07:12:57.120Z,1.25
2023-02-11T07:15:28.920Z,1.19
2023-02-11T07:17:59.927Z,1.21
2023-02-11T07:20:30.203Z,1.16
2023-02-11T07:23:00.357Z,1.20
2023-02-11T07:25:31.275Z,1.23
2023-02-11T07:28:01.444Z,1.26
2023-02-11T07:30:31.743Z,1.25
2023-02-11T07:33:02.053Z,1.31
2023-02-11T07:35:32.299Z,1.33
2023-02-11T07:38:02.466Z,1.32
2023-02-11T07:40:32.634Z,1.20
2023-02-11T07:43:03.171Z,1.27
2023-02-11T07:45:33.399Z,1.29
2023-02-11T07:48:03.687Z,1.30
2023-02-11T07:50:33.860Z,1.26
2023-02-11T07:53:09.052Z,1.32
2023-02-11T07:55:43.616Z,1.29
2023-02-11T07:58:14.009Z,1.31
2023-02-11T08:00:44.200Z,1.32
2023-02-11T08:03:14.437Z,1.32
2023-02-11T08:05:44.583Z,1.35
2023-02-11T08:08:15.411Z,1.29
2023-02-11T08:10:45.676Z,1.24
2023-02-11T08:13:15.861Z,1.25
2023-02-11T08:15:46.023Z,1.24
2023-02-11T08:18:16.240Z,1.28
2023-02-11T08:20:46.497Z,1.29
2023-02-11T08:23:16.631Z,1.31
2023-02-11T08:25:46.807Z,1.33
2023-02-11T08:28:17.004Z,1.33
2023-02-11T08:30:47.243Z,1.39
2023-02-11T08:33:17.424Z,1.44
2023-02-11T08:35:47.662Z,1.39
2023-02-11T08:38:17.883Z,1.46
2023-02-11T08:40:48.646Z,1.49
2023-02-11T08:43:18.786Z,1.52
2023-02-11T08:45:49.163Z,1.55
2023-02-11T08:48:19.703Z,1.54
2023-02-11T08:50:49.817Z,1.57
2023-02-11T08:53:20.083Z,1.50
2023-02-11T08:55:55.141Z,1.54
2023-02-11T08:58:25.454Z,1.48
2023-02-11T09:00:55.692Z,1.59
2023-02-11T09:03:25.820Z,1.56
2023-02-11T09:05:57.174Z,1.52
2023-02-11T09:08:27.446Z,1.51
2023-02-11T09:10:57.999Z,1.59
2023-02-11T09:13:28.549Z,1.55
2023-02-11T09:16:00.485Z,1.58
2023-02-11T09:18:30.910Z,1.63
2023-02-11T09:21:09.101Z,1.60
2023-02-11T09:23:41.886Z,1.55
2023-02-11T09:26:22.517Z,1.62
2023-02-11T09:28:53.134Z,1.55
2023-02-11T09:31:25.822Z,1.55
2023-02-11T09:33:59.426Z,1.51
2023-02-11T09:36:32.891Z,1.53
2023-02-11T09:39:05.376Z,1.54
2023-02-11T09:41:53.541Z,1.57
2023-02-11T09:44:27.603Z,1.57
2023-02-11T09:47:03.736Z,1.63
2023-02-11T09:49:42.851Z,1.71
2023-02-11T09:52:51.832Z,1.70
2023-02-11T09:55:32.446Z,1.68
2023-02-11T09:58:05.535Z,1.69
2023-02-11T10:00:43.194Z,1.66
2023-02-11T10:03:42.386Z,1.72
2023-02-11T10:06:53.611Z,1.74
2023-02-11T10:09:30.017Z,1.72
2023-02-11T10:12:36.563Z,1.72
2023-02-11T10:15:09.495Z,1.75
2023-02-11T10:18:01.198Z,1.71
2023-02-11T10:20:53.490Z,1.72
2023-02-11T10:23:28.760Z,1.73
2023-02-11T10:25:59.837Z,1.75
2023-02-11T10:28:32.888Z,1.78
2023-02-11T10:31:08.881Z,1.82
2023-02-11T10:33:59.490Z,1.91
2023-02-11T10:36:41.990Z,1.92
2023-02-11T10:39:13.878Z,1.94
2023-02-11T10:41:47.439Z,1.99
2023-02-11T10:44:39.109Z,2.07
2023-02-11T10:47:41.715Z,2.10
2023-02-11T10:50:25.787Z,2.14
2023-02-11T10:53:21.013Z,2.17
2023-02-11T10:55:57.565Z,2.20
2023-02-11T10:58:54.622Z,2.15
2023-02-11T11:01:42.613Z,2.28
2023-02-11T11:04:45.542Z,2.27
2023-02-11T11:07:25.126Z,2.31
2023-02-11T11:10:25.555Z,2.34
2023-02-11T11:12:55.684Z,2.33
2023-02-11T11:15:28.521Z,2.33
2023-02-11T11:18:22.878Z,2.42
2023-02-11T11:21:16.214Z,2.41
2023-02-11T11:23:58.838Z,2.44
2023-02-11T11:26:45.203Z,2.44
2023-02-11T11:29:22.872Z,2.50
2023-02-11T11:32:01.470Z,2.52
2023-02-11T11:34:35.229Z,2.50
2023-02-11T11:37:15.214Z,2.50
2023-02-11T11:39:56.587Z,2.52
2023-02-11T11:42:30.298Z,2.56
2023-02-11T11:45:25.973Z,2.65
2023-02-11T11:48:04.611Z,2.67
2023-02-11T11:50:43.770Z,2.68
2023-02-11T11:53:40.614Z,2.81
2023-02-11T11:56:26.517Z,2.86
2023-02-11T11:58:57.017Z,2.95
2023-02-11T12:01:39.325Z,3.02
2023-02-11T12:05:10.979Z,3.09
2023-02-11T12:08:09.599Z,3.12
2023-02-11T12:11:15.566Z,3.19
2023-02-11T12:14:09.563Z,3.29
2023-02-11T12:16:57.297Z,3.36
2023-02-11T12:19:45.599Z,3.48
2023-02-11T12:22:34.912Z,3.54
2023-02-11T12:25:47.796Z,3.65
2023-02-11T12:28:40.318Z,3.68
2023-02-11T12:31:34.292Z,3.74
2023-02-11T12:34:36.762Z,3.77
2023-02-11T12:37:28.421Z,3.82
2023-02-11T12:40:17.888Z,3.85
2023-02-11T12:43:09.607Z,3.89
2023-02-11T12:46:09.885Z,3.94
2023-02-11T12:48:48.213Z,3.93
2023-02-11T12:51:52.266Z,3.95
2023-02-11T12:54:25.859Z,3.98
2023-02-11T12:57:02.481Z,3.96
2023-02-11T12:59:49.028Z,3.98
2023-02-11T13:02:31.137Z,4.00
2023-02-11T13:05:19.113Z,4.01
2023-02-11T13:07:52.148Z,3.97
2023-02-11T13:10:27.151Z,4.02
2023-02-11T13:13:17.834Z,3.99
2023-02-11T13:15:56.341Z,4.03
2023-02-11T13:18:55.448Z,4.08
2023-02-11T13:21:36.573Z,4.10
2023-02-11T13:24:51.606Z,4.13
2023-02-11T13:27:24.832Z,4.15
2023-02-11T13:30:24.591Z,4.19
2023-02-11T13:32:54.826Z,4.25
2023-02-11T13:35:36.783Z,4.30
2023-02-11T13:38:17.438Z,4.31
2023-02-11T13:40:59.562Z,4.34
2023-02-11T13:43:32.214Z,4.38
2023-02-11T13:46:10.279Z,4.42
2023-02-11T13:48:48.527Z,4.47
2023-02-11T13:51:40.652Z,4.51
2023-02-11T13:54:27.704Z,4.55
2023-02-11T13:57:19.695Z,4.59
2023-02-11T13:59:55.824Z,4.57
2023-02-11T14:02:50.222Z,4.62
2023-02-11T14:05:41.959Z,4.63
2023-02-11T14:08:30.586Z,4.62
2023-02-11T14:11:11.060Z,4.62
2023-02-11T14:13:47.434Z,4.63
2023-02-11T14:16:35.605Z,4.62
2023-02-11T14:19:08.882Z,4.63
2023-02-11T14:21:42.756Z,4.62
2023-02-11T14:24:13.184Z,4.65
2023-02-11T14:26:55.847Z,4.66
2023-02-11T14:29:44.136Z,4.66
2023-02-11T14:32:38.281Z,4.64
2023-02-11T14:35:36.669Z,4.64
2023-02-11T14:38:35.297Z,4.64
2023-02-11T14:41:11.561Z,4.66
2023-02-11T14:43:48.324Z,4.66
2023-02-11T14:46:20.046Z,4.64
2023-02-11T14:48:53.825Z,4.67
2023-02-11T14:51:28.325Z,4.66
2023-02-11T14:54:13.546Z,4.66
2023-02-11T14:56:44.726Z,4.66
2023-02-11T14:59:22.780Z,4.66
2023-02-11T15:01:55.345Z,4.65
2023-02-11T15:04:29.272Z,4.65
2023-02-11T15:07:06.683Z,4.62
2023-02-11T15:09:49.086Z,4.56
2023-02-11T15:12:28.861Z,4.55
2023-02-11T15:15:02.582Z,4.56
2023-02-11T15:17:34.022Z,4.45
2023-02-11T15:20:07.169Z,4.44
2023-02-11T15:22:39.675Z,4.44
2023-02-11T15:25:15.083Z,4.47
2023-02-11T15:27:50.694Z,4.41
2023-02-11T15:30:23.508Z,4.42
2023-02-11T15:32:59.472Z,4.37
2023-02-11T15:35:31.593Z,4.35
2023-02-11T15:38:01.868Z,4.28
2023-02-11T15:40:34.662Z,4.28
2023-02-11T15:43:10.406Z,4.23
2023-02-11T15:45:54.232Z,4.18
2023-02-11T15:48:32.277Z,4.12
2023-02-11T15:51:12.981Z,4.06
2023-02-11T15:53:44.232Z,4.01
2023-02-11T15:56:24.389Z,4.01
2023-02-11T15:58:57.519Z,3.98
2023-02-11T16:01:33.859Z,3.94
2023-02-11T16:04:05.701Z,3.90
2023-02-11T16:06:41.576Z,3.85
2023-02-11T16:09:11.721Z,3.84
2023-02-11T16:11:48.139Z,3.85
2023-02-11T16:14:31.372Z,3.85
2023-02-11T16:17:34.063Z,3.84
2023-02-11T16:20:04.700Z,3.81
2023-02-11T16:22:38.267Z,3.79
2023-02-11T16:25:19.578Z,3.74
2023-02-11T16:27:52.648Z,3.73
2023-02-11T16:30:22.778Z,3.71
2023-02-11T16:32:53.952Z,3.64
2023-02-11T16:35:24.133Z,3.66
2023-02-11T16:37:55.604Z,3.63
2023-02-11T16:40:25.848Z,3.62
2023-02-11T16:42:56.298Z,3.49
2023-02-11T16:45:27.122Z,3.55
2023-02-11T16:47:57.626Z,3.56
2023-02-11T16:50:27.958Z,3.51
2023-02-11T16:52:59.654Z,3.53
2023-02-11T16:55:30.075Z,3.43
2023-02-11T16:58:00.331Z,3.38
2023-02-11T17:00:30.504Z,3.39
2023-02-11T17:03:00.705Z,3.37
2023-02-11T17:05:33.040Z,3.36
2023-02-11T17:08:06.618Z,3.31
2023-02-11T17:10:38.135Z,3.25
2023-02-11T17:13:08.649Z,3.23
2023-02-11T17:15:38.790Z,3.17
2023-02-11T17:18:12.664Z,3.13
2023-02-11T17:20:42.795Z,2.98
2023-02-11T17:23:13.051Z,2.98
2023-02-11T17:25:43.301Z,2.95
2023-02-11T17:28:13.491Z,2.93
2023-02-11T17:30:44.272Z,2.89
2023-02-11T17:33:14.383Z,2.84
2023-02-11T17:35:44.904Z,2.83
2023-02-11T17:38:15.120Z,2.77
2023-02-11T17:40:45.301Z,2.75
2023-02-11T17:43:16.293Z,2.75
2023-02-11T17:45:46.599Z,2.75
2023-02-11T17:48:16.730Z,2.75
2023-02-11T17:50:46.998Z,2.77
2023-02-11T17:53:17.202Z,2.74
2023-02-11T17:55:47.728Z,2.73
2023-02-11T17:58:17.892Z,2.74
2023-02-11T18:00:48.269Z,2.73
2023-02-11T18:03:18.427Z,2.73
2023-02-11T18:05:48.591Z,2.71
2023-02-11T18:08:18.764Z,2.68
2023-02-11T18:10:49.231Z,2.66
2023-02-11T18:13:19.510Z,2.64
2023-02-11T18:15:49.831Z,2.61
2023-02-11T18:18:20.560Z,2.54
2023-02-11T18:21:08.877Z,2.54
2023-02-11T18:23:39.139Z,2.53
2023-02-11T18:26:10.873Z,2.54
2023-02-11T18:28:43.811Z,2.45
2023-02-11T18:31:15.773Z,2.44
2023-02-11T18:33:46.180Z,2.44
2023-02-11T18:36:24.425Z,2.40
2023-02-11T18:38:58.422Z,2.40
2023-02-11T18:41:29.986Z,2.38
2023-02-11T18:44:03.473Z,2.37
2023-02-11T18:46:33.820Z,2.28
2023-02-11T18:49:04.153Z,2.29
2023-02-11T18:51:34.357Z,2.29
2023-02-11T18:54:04.625Z,2.12
2023-02-11T18:56:34.886Z,2.23
2023-02-11T18:59:05.108Z,2.19
2023-02-11T19:01:35.905Z,2.17
2023-02-11T19:04:06.155Z,2.08
2023-02-11T19:06:37.712Z,2.14
2023-02-11T19:09:11.343Z,2.10
2023-02-11T19:11:47.230Z,2.05
2023-02-11T19:14:22.479Z,2.08
2023-02-11T19:16:55.402Z,2.08
2023-02-11T19:19:28.439Z,2.10
2023-02-11T19:22:00.203Z,2.15
2023-02-11T19:24:30.970Z,2.18
2023-02-11T19:27:03.361Z,2.15
2023-02-11T19:29:35.450Z,2.13
2023-02-11T19:32:06.869Z,2.08
2023-02-11T19:34:41.447Z,2.07
2023-02-11T19:37:13.095Z,2.09
2023-02-11T19:39:44.020Z,2.10
2023-02-11T19:42:14.217Z,2.11
2023-02-11T19:44:44.355Z,2.10
2023-02-11T19:47:14.853Z,2.08
2023-02-11T19:49:45.155Z,2.06
2023-02-11T19:52:15.773Z,2.07
2023-02-11T19:54:46.783Z,2.09
2023-02-11T19:57:17.010Z,2.08
2023-02-11T19:59:47.142Z,2.03
2023-02-11T20:02:17.761Z,2.08
2023-02-11T20:04:47.955Z,2.12
2023-02-11T20:07:18.080Z,2.14
2023-02-11T20:09:48.184Z,2.16
2023-02-11T20:12:18.462Z,2.18
2023-02-11T20:14:48.845Z,2.19
2023-02-11T20:17:19.560Z,2.21
2023-02-11T20:19:50.226Z,2.19
2023-02-11T20:22:20.448Z,2.17
2023-02-11T20:24:50.556Z,2.16
2023-02-11T20:27:20.650Z,2.14
2023-02-11T20:29:50.875Z,2.17
2023-02-11T20:32:21.463Z,2.19
2023-02-11T20:34:51.685Z,2.15
2023-02-11T20:37:21.866Z,2.15
2023-02-11T20:39:52.069Z,2.11
2023-02-11T20:42:22.183Z,2.10
2023-02-11T20:44:52.360Z,2.12
2023-02-11T20:47:22.895Z,2.10
2023-02-11T20:49:55.253Z,2.08
2023-02-11T20:52:25.396Z,2.06
2023-02-11T20:54:55.554Z,2.03
2023-02-11T20:57:25.758Z,1.98
2023-02-11T20:59:55.929Z,1.94
2023-02-11T21:02:26.100Z,1.91
2023-02-11T21:04:56.261Z,1.86
2023-02-11T21:07:29.770Z,1.84
2023-02-11T21:10:00.081Z,1.73
2023-02-11T21:12:30.212Z,1.82
2023-02-11T21:15:00.537Z,1.79
2023-02-11T21:17:31.384Z,1.78
2023-02-11T21:20:01.663Z,1.82
2023-02-11T21:22:31.904Z,1.81
2023-02-11T21:25:02.540Z,1.76
2023-02-11T21:27:33.953Z,1.74
2023-02-11T21:30:06.693Z,1.74
2023-02-11T21:32:37.062Z,1.70
2023-02-11T21:35:07.763Z,1.71
2023-02-11T21:37:38.034Z,1.72
2023-02-11T21:40:08.722Z,1.73
2023-02-11T21:42:38.935Z,1.72
2023-02-11T21:45:09.934Z,1.77
2023-02-11T21:47:40.162Z,1.80
2023-02-11T21:50:10.671Z,1.81
2023-02-11T21:52:40.915Z,1.82
2023-02-11T21:55:12.786Z,1.82
2023-02-11T21:57:43.397Z,1.76
2023-02-11T22:00:14.226Z,1.82
2023-02-11T22:02:44.530Z,1.81
2023-02-11T22:05:15.138Z,1.81
2023-02-11T22:07:45.244Z,1.77
2023-02-11T22:10:15.514Z,1.81
2023-02-11T22:12:46.501Z,1.81
2023-02-11T22:15:24.637Z,1.86
2023-02-11T22:18:10.056Z,1.86
2023-02-11T22:20:40.270Z,1.83
2023-02-11T22:23:10.390Z,1.77
2023-02-11T22:25:40.627Z,1.77
2023-02-11T22:28:10.849Z,1.76
2023-02-11T22:30:41.137Z,1.67
2023-02-11T22:33:11.380Z,1.76
2023-02-11T22:35:41.575Z,1.76
2023-02-11T22:38:11.841Z,1.83
2023-02-11T22:40:43.332Z,1.87
2023-02-11T22:43:13.486Z,1.84
2023-02-11T22:45:43.647Z,1.88
2023-02-11T22:48:13.890Z,1.92
2023-02-11T22:50:44.105Z,1.89
2023-02-11T22:53:14.214Z,1.88
2023-02-11T22:55:44.457Z,1.89
2023-02-11T22:58:14.591Z,1.87
2023-02-11T23:00:44.752Z,1.86
2023-02-11T23:03:15.423Z,1.86
2023-02-11T23:05:45.560Z,1.82
2023-02-11T23:08:15.661Z,1.75
2023-02-11T23:10:46.547Z,1.73
2023-02-11T23:13:16.874Z,1.66
2023-02-11T23:15:47.644Z,1.64
2023-02-11T23:18:17.828Z,1.62
2023-02-11T23:20:48.027Z,1.58
2023-02-11T23:23:18.229Z,1.59
2023-02-11T23:25:48.309Z,1.55
2023-02-11T23:28:18.480Z,1.54
2023-02-11T23:30:48.694Z,1.54
2023-02-11T23:33:19.037Z,1.59
2023-02-11T23:35:49.259Z,1.61
2023-02-11T23:38:19.443Z,1.65
2023-02-11T23:40:49.720Z,1.67
2023-02-11T23:43:20.216Z,1.66
2023-02-11T23:45:52.434Z,1.64
2023-02-11T23:48:22.854Z,1.65
2023-02-11T23:50:53.385Z,1.60
2023-02-11T23:53:23.710Z,1.58
2023-02-11T23:55:54.094Z,1.60
2023-02-11T23:58:24.792Z,1.55
